Aérodrome :
LOGIN :

S'inscrire | Disclaimer

   EN    FR    IT 

 










Légende :    VFR   VFR Marginal   IFR   IFR Intensif   IFR Très Intensif
Visi : 
Plafond : 
>= 8 km
>= 3000ft
5 à 8 km
1000 à 3000 ft
1500m à 5 km
500 à 1000 ft
800 à 1500m
200 à 500 ft
< 800m
< 200 ft
Symboles :   Orages  Brouillard  Fortes neiges  Fortes précipitations  Vent > 20 kt
SIGMETs :   Divers  Orages  Givrage  Turbulence  Onde Orograph.  Cendres Volcan.






- Altitude de l'aérodrome : 751 ft
- Code IATA : ENC


LFSN - Nancy Essey

DERNIER METAR :
  • 131100Z AUTO 22005KT 150V320 9999 BKN038/// BKN044/// BKN056/// //////TCU 20/11 Q1015

METARs EXPIRÉS :
  • 131030Z AUTO 23004KT 130V300 9999 FEW033/// SCT094/// ///TCU 20/12 Q1015
  • 131000Z AUTO VRB04KT 9999 FEW036 SCT045 BKN074 19/12 Q1015
  • 130930Z AUTO 28005KT 200V320 9999 BKN032/// BKN050/// BKN084/// ///TCU 18/11 Q1015
  • 130900Z AUTO 25004KT 180V330 9999 SCT029/// BKN034/// BKN047/// ///TCU 18/12 Q1015
  • 130830Z AUTO 29005KT 240V320 9999 BKN026 OVC094 17/12 Q1015
  • 130800Z AUTO 24005KT 190V310 9999 FEW024 SCT047 OVC094 17/12 Q1015
  • 130730Z AUTO 27005KT 230V320 9999 FEW022 BKN027 BKN032 17/11 Q1015
  • 130700Z AUTO 25006KT 200V280 9999 SCT015 BKN026 BKN031 16/12 Q1015
  • 130630Z AUTO 28005KT 230V330 9999 SCT013 BKN032 16/13 Q1015

Prévision TAF périmée.



MET'MAP, la Météo Aéronautique d'un coup d'oeil ! - Copyright ORBIFLY Décembre 2007 - Disclaimer

ORBIFLY MET'MAP TEAM :

Programmation & Développement : Alexandra Zaïnal
Sur une idée originale de : Baudouin d'Aumeries
Soutien technique & logistique : Manuel Goepfert
Assistance : Marc-Olivier Méhu




SOURCES & CREDITS :

   NOAA